sensor_id;sensor_type;location;lat;lon;timestamp;P1;durP1;ratioP1;P2;durP2;ratioP2
18822;SDS011;9540;51.550;7.980;2023-02-15T00:01:28;19.67;;;10.60;;
18822;SDS011;9540;51.550;7.980;2023-02-15T00:03:57;18.13;;;10.90;;
18822;SDS011;9540;51.550;7.980;2023-02-15T00:06:24;22.50;;;11.70;;
18822;SDS011;9540;51.550;7.980;2023-02-15T00:08:51;23.83;;;12.53;;
18822;SDS011;9540;51.550;7.980;2023-02-15T00:11:19;24.90;;;12.83;;
18822;SDS011;9540;51.550;7.980;2023-02-15T00:14:04;23.23;;;12.53;;
18822;SDS011;9540;51.550;7.980;2023-02-15T00:16:32;22.20;;;12.40;;
18822;SDS011;9540;51.550;7.980;2023-02-15T00:19:01;23.00;;;12.20;;
18822;SDS011;9540;51.550;7.980;2023-02-15T00:21:28;24.30;;;12.43;;
18822;SDS011;9540;51.550;7.980;2023-02-15T00:23:57;24.63;;;12.97;;
18822;SDS011;9540;51.550;7.980;2023-02-15T00:26:25;25.07;;;12.93;;
18822;SDS011;9540;51.550;7.980;2023-02-15T00:28:52;22.27;;;11.17;;
18822;SDS011;9540;51.550;7.980;2023-02-15T00:31:20;21.10;;;11.43;;
18822;SDS011;9540;51.550;7.980;2023-02-15T00:33:47;28.10;;;13.13;;
18822;SDS011;9540;51.550;7.980;2023-02-15T00:36:15;31.70;;;13.47;;
18822;SDS011;9540;51.550;7.980;2023-02-15T00:38:42;28.27;;;13.00;;
18822;SDS011;9540;51.550;7.980;2023-02-15T00:41:09;26.00;;;13.53;;
18822;SDS011;9540;51.550;7.980;2023-02-15T00:43:36;26.17;;;14.17;;
18822;SDS011;9540;51.550;7.980;2023-02-15T00:46:04;23.40;;;13.43;;
18822;SDS011;9540;51.550;7.980;2023-02-15T00:48:32;27.57;;;12.17;;
18822;SDS011;9540;51.550;7.980;2023-02-15T00:50:59;24.03;;;12.37;;
18822;SDS011;9540;51.550;7.980;2023-02-15T00:53:28;24.50;;;12.87;;
18822;SDS011;9540;51.550;7.980;2023-02-15T00:55:55;27.83;;;13.73;;
18822;SDS011;9540;51.550;7.980;2023-02-15T00:58:23;39.00;;;17.57;;
18822;SDS011;9540;51.550;7.980;2023-02-15T01:00:50;41.67;;;19.10;;
18822;SDS011;9540;51.550;7.980;2023-02-15T01:03:18;34.60;;;15.90;;
18822;SDS011;9540;51.550;7.980;2023-02-15T01:05:46;38.80;;;16.70;;
18822;SDS011;9540;51.550;7.980;2023-02-15T01:08:14;33.37;;;15.80;;
18822;SDS011;9540;51.550;7.980;2023-02-15T01:10:43;33.77;;;15.00;;
18822;SDS011;9540;51.550;7.980;2023-02-15T01:13:12;31.47;;;14.40;;
18822;SDS011;9540;51.550;7.980;2023-02-15T01:15:40;26.13;;;14.13;;
18822;SDS011;9540;51.550;7.980;2023-02-15T01:18:07;27.47;;;13.50;;
18822;SDS011;9540;51.550;7.980;2023-02-15T01:20:35;29.33;;;13.57;;
18822;SDS011;9540;51.550;7.980;2023-02-15T01:23:06;29.97;;;13.53;;
18822;SDS011;9540;51.550;7.980;2023-02-15T01:25:34;37.17;;;16.03;;
18822;SDS011;9540;51.550;7.980;2023-02-15T01:28:03;38.10;;;17.07;;
18822;SDS011;9540;51.550;7.980;2023-02-15T01:30:31;44.60;;;19.53;;
18822;SDS011;9540;51.550;7.980;2023-02-15T01:32:59;44.97;;;19.17;;
18822;SDS011;9540;51.550;7.980;2023-02-15T01:35:27;45.23;;;19.20;;
18822;SDS011;9540;51.550;7.980;2023-02-15T01:37:54;43.50;;;18.20;;
18822;SDS011;9540;51.550;7.980;2023-02-15T01:40:21;41.10;;;19.57;;
18822;SDS011;9540;51.550;7.980;2023-02-15T01:42:49;47.93;;;20.47;;
18822;SDS011;9540;51.550;7.980;2023-02-15T01:47:52;32.90;;;15.13;;
18822;SDS011;9540;51.550;7.980;2023-02-15T01:50:23;38.93;;;17.23;;
18822;SDS011;9540;51.550;7.980;2023-02-15T01:52:55;34.87;;;16.57;;
18822;SDS011;9540;51.550;7.980;2023-02-15T01:55:25;37.33;;;16.07;;
18822;SDS011;9540;51.550;7.980;2023-02-15T01:57:56;34.50;;;16.80;;
18822;SDS011;9540;51.550;7.980;2023-02-15T02:00:25;35.47;;;16.53;;
18822;SDS011;9540;51.550;7.980;2023-02-15T02:02:53;35.07;;;16.33;;
18822;SDS011;9540;51.550;7.980;2023-02-15T02:05:23;31.63;;;14.83;;
18822;SDS011;9540;51.550;7.980;2023-02-15T02:07:51;31.27;;;15.03;;
18822;SDS011;9540;51.550;7.980;2023-02-15T02:10:22;35.90;;;16.20;;
18822;SDS011;9540;51.550;7.980;2023-02-15T02:12:50;35.03;;;16.43;;
18822;SDS011;9540;51.550;7.980;2023-02-15T02:15:21;32.83;;;14.87;;
18822;SDS011;9540;51.550;7.980;2023-02-15T02:17:57;30.90;;;15.37;;
18822;SDS011;9540;51.550;7.980;2023-02-15T02:20:43;34.47;;;16.23;;
18822;SDS011;9540;51.550;7.980;2023-02-15T02:23:36;33.37;;;15.13;;
18822;SDS011;9540;51.550;7.980;2023-02-15T02:26:23;33.23;;;16.17;;
18822;SDS011;9540;51.550;7.980;2023-02-15T02:29:24;34.70;;;14.30;;
18822;SDS011;9540;51.550;7.980;2023-02-15T02:35:10;31.77;;;14.63;;
18822;SDS011;9540;51.550;7.980;2023-02-15T02:37:45;33.97;;;14.43;;
18822;SDS011;9540;51.550;7.980;2023-02-15T02:40:18;40.13;;;14.93;;
18822;SDS011;9540;51.550;7.980;2023-02-15T02:42:54;33.33;;;13.83;;
18822;SDS011;9540;51.550;7.980;2023-02-15T02:45:27;31.07;;;14.60;;
18822;SDS011;9540;51.550;7.980;2023-02-15T02:47:59;30.53;;;14.47;;
18822;SDS011;9540;51.550;7.980;2023-02-15T02:50:31;35.33;;;14.90;;
18822;SDS011;9540;51.550;7.980;2023-02-15T02:52:58;30.30;;;13.87;;
18822;SDS011;9540;51.550;7.980;2023-02-15T02:55:27;32.40;;;14.57;;
18822;SDS011;9540;51.550;7.980;2023-02-15T02:57:59;31.00;;;14.10;;
18822;SDS011;9540;51.550;7.980;2023-02-15T03:00:31;31.73;;;14.47;;
18822;SDS011;9540;51.550;7.980;2023-02-15T03:03:04;33.63;;;15.23;;
18822;SDS011;9540;51.550;7.980;2023-02-15T03:05:37;32.13;;;14.17;;
18822;SDS011;9540;51.550;7.980;2023-02-15T03:08:07;33.93;;;14.13;;
18822;SDS011;9540;51.550;7.980;2023-02-15T03:10:35;31.77;;;14.43;;
18822;SDS011;9540;51.550;7.980;2023-02-15T03:13:05;32.63;;;14.43;;
18822;SDS011;9540;51.550;7.980;2023-02-15T03:15:34;35.00;;;14.30;;
18822;SDS011;9540;51.550;7.980;2023-02-15T03:18:23;32.57;;;14.47;;
18822;SDS011;9540;51.550;7.980;2023-02-15T03:20:56;26.33;;;12.97;;
18822;SDS011;9540;51.550;7.980;2023-02-15T03:23:27;27.50;;;13.40;;
18822;SDS011;9540;51.550;7.980;2023-02-15T03:25:57;30.67;;;13.77;;
18822;SDS011;9540;51.550;7.980;2023-02-15T03:28:27;28.03;;;13.20;;
18822;SDS011;9540;51.550;7.980;2023-02-15T03:31:00;28.37;;;13.23;;
18822;SDS011;9540;51.550;7.980;2023-02-15T03:33:29;30.97;;;14.27;;
18822;SDS011;9540;51.550;7.980;2023-02-15T03:35:59;32.13;;;13.57;;
18822;SDS011;9540;51.550;7.980;2023-02-15T03:38:33;33.37;;;13.87;;
18822;SDS011;9540;51.550;7.980;2023-02-15T03:41:06;30.50;;;13.47;;
18822;SDS011;9540;51.550;7.980;2023-02-15T03:43:38;29.50;;;13.23;;
18822;SDS011;9540;51.550;7.980;2023-02-15T03:46:12;32.27;;;14.80;;
18822;SDS011;9540;51.550;7.980;2023-02-15T03:48:47;30.70;;;14.63;;
18822;SDS011;9540;51.550;7.980;2023-02-15T03:51:20;33.97;;;15.43;;
18822;SDS011;9540;51.550;7.980;2023-02-15T03:54:02;28.00;;;13.57;;
18822;SDS011;9540;51.550;7.980;2023-02-15T03:56:33;36.87;;;14.50;;
18822;SDS011;9540;51.550;7.980;2023-02-15T03:59:01;35.10;;;15.37;;
18822;SDS011;9540;51.550;7.980;2023-02-15T04:01:48;30.30;;;13.70;;
18822;SDS011;9540;51.550;7.980;2023-02-15T04:04:25;30.80;;;15.10;;
18822;SDS011;9540;51.550;7.980;2023-02-15T04:06:57;39.23;;;16.03;;
18822;SDS011;9540;51.550;7.980;2023-02-15T04:09:24;35.97;;;15.63;;
18822;SDS011;9540;51.550;7.980;2023-02-15T04:12:08;31.43;;;15.10;;
18822;SDS011;9540;51.550;7.980;2023-02-15T04:14:35;35.37;;;14.37;;
18822;SDS011;9540;51.550;7.980;2023-02-15T04:17:20;30.93;;;15.23;;
18822;SDS011;9540;51.550;7.980;2023-02-15T04:19:47;36.07;;;15.70;;
18822;SDS011;9540;51.550;7.980;2023-02-15T04:22:33;33.27;;;16.10;;
18822;SDS011;9540;51.550;7.980;2023-02-15T04:25:17;30.70;;;14.53;;
18822;SDS011;9540;51.550;7.980;2023-02-15T04:27:46;28.13;;;13.93;;
18822;SDS011;9540;51.550;7.980;2023-02-15T04:30:15;34.87;;;15.47;;
18822;SDS011;9540;51.550;7.980;2023-02-15T04:32:43;26.27;;;14.50;;
18822;SDS011;9540;51.550;7.980;2023-02-15T04:35:10;36.60;;;16.53;;
18822;SDS011;9540;51.550;7.980;2023-02-15T04:37:39;32.37;;;15.30;;
18822;SDS011;9540;51.550;7.980;2023-02-15T04:40:08;32.20;;;16.03;;
18822;SDS011;9540;51.550;7.980;2023-02-15T04:42:36;37.73;;;15.83;;
18822;SDS011;9540;51.550;7.980;2023-02-15T04:45:03;34.83;;;15.83;;
18822;SDS011;9540;51.550;7.980;2023-02-15T04:47:30;32.23;;;14.97;;
18822;SDS011;9540;51.550;7.980;2023-02-15T04:49:57;34.23;;;16.90;;
18822;SDS011;9540;51.550;7.980;2023-02-15T04:52:24;33.40;;;15.43;;
18822;SDS011;9540;51.550;7.980;2023-02-15T04:54:53;35.33;;;16.33;;
18822;SDS011;9540;51.550;7.980;2023-02-15T04:57:20;38.07;;;15.67;;
18822;SDS011;9540;51.550;7.980;2023-02-15T04:59:46;36.60;;;16.73;;
18822;SDS011;9540;51.550;7.980;2023-02-15T05:02:13;41.37;;;16.27;;
18822;SDS011;9540;51.550;7.980;2023-02-15T05:04:40;36.93;;;16.33;;
18822;SDS011;9540;51.550;7.980;2023-02-15T05:07:07;37.17;;;16.40;;
18822;SDS011;9540;51.550;7.980;2023-02-15T05:09:34;42.97;;;17.33;;
18822;SDS011;9540;51.550;7.980;2023-02-15T05:12:03;35.67;;;17.17;;
18822;SDS011;9540;51.550;7.980;2023-02-15T05:14:30;41.97;;;17.00;;
18822;SDS011;9540;51.550;7.980;2023-02-15T05:16:57;39.60;;;17.00;;
18822;SDS011;9540;51.550;7.980;2023-02-15T05:19:26;39.87;;;17.30;;
18822;SDS011;9540;51.550;7.980;2023-02-15T05:21:53;45.60;;;18.60;;
18822;SDS011;9540;51.550;7.980;2023-02-15T05:24:21;38.00;;;16.93;;
18822;SDS011;9540;51.550;7.980;2023-02-15T05:27:07;35.67;;;16.83;;
18822;SDS011;9540;51.550;7.980;2023-02-15T05:29:53;38.73;;;16.40;;
18822;SDS011;9540;51.550;7.980;2023-02-15T05:32:20;38.27;;;16.27;;
18822;SDS011;9540;51.550;7.980;2023-02-15T05:34:47;40.27;;;17.70;;
18822;SDS011;9540;51.550;7.980;2023-02-15T05:37:14;35.10;;;16.77;;
18822;SDS011;9540;51.550;7.980;2023-02-15T05:39:41;46.93;;;18.30;;
18822;SDS011;9540;51.550;7.980;2023-02-15T05:42:09;45.00;;;18.73;;
18822;SDS011;9540;51.550;7.980;2023-02-15T05:44:36;51.07;;;20.97;;
18822;SDS011;9540;51.550;7.980;2023-02-15T05:47:03;50.73;;;21.73;;
18822;SDS011;9540;51.550;7.980;2023-02-15T05:49:32;45.30;;;20.50;;
18822;SDS011;9540;51.550;7.980;2023-02-15T05:51:59;42.73;;;20.43;;
18822;SDS011;9540;51.550;7.980;2023-02-15T05:54:26;43.00;;;20.00;;
18822;SDS011;9540;51.550;7.980;2023-02-15T05:56:53;46.40;;;18.63;;
18822;SDS011;9540;51.550;7.980;2023-02-15T05:59:22;37.17;;;18.07;;
18822;SDS011;9540;51.550;7.980;2023-02-15T06:01:49;35.03;;;16.50;;
18822;SDS011;9540;51.550;7.980;2023-02-15T06:04:16;36.60;;;17.33;;
18822;SDS011;9540;51.550;7.980;2023-02-15T06:06:43;42.73;;;17.10;;
18822;SDS011;9540;51.550;7.980;2023-02-15T06:09:10;39.30;;;17.23;;
18822;SDS011;9540;51.550;7.980;2023-02-15T06:11:37;36.67;;;16.87;;
18822;SDS011;9540;51.550;7.980;2023-02-15T06:14:04;41.40;;;18.57;;
18822;SDS011;9540;51.550;7.980;2023-02-15T06:16:33;29.87;;;15.37;;
18822;SDS011;9540;51.550;7.980;2023-02-15T06:19:00;34.17;;;15.67;;
18822;SDS011;9540;51.550;7.980;2023-02-15T06:21:27;33.00;;;16.10;;
18822;SDS011;9540;51.550;7.980;2023-02-15T06:23:54;34.63;;;16.37;;
18822;SDS011;9540;51.550;7.980;2023-02-15T06:26:21;39.50;;;16.83;;
18822;SDS011;9540;51.550;7.980;2023-02-15T06:28:48;37.63;;;16.13;;
18822;SDS011;9540;51.550;7.980;2023-02-15T06:31:15;36.70;;;17.47;;
18822;SDS011;9540;51.550;7.980;2023-02-15T06:33:44;34.93;;;17.10;;
18822;SDS011;9540;51.550;7.980;2023-02-15T06:36:11;33.23;;;16.07;;
18822;SDS011;9540;51.550;7.980;2023-02-15T06:38:38;33.67;;;15.80;;
18822;SDS011;9540;51.550;7.980;2023-02-15T06:41:05;33.80;;;15.77;;
18822;SDS011;9540;51.550;7.980;2023-02-15T06:43:32;32.43;;;16.00;;
18822;SDS011;9540;51.550;7.980;2023-02-15T06:46:00;40.73;;;17.03;;
18822;SDS011;9540;51.550;7.980;2023-02-15T06:48:27;38.73;;;17.60;;
18822;SDS011;9540;51.550;7.980;2023-02-15T06:50:55;34.90;;;16.87;;
18822;SDS011;9540;51.550;7.980;2023-02-15T06:53:22;37.83;;;18.73;;
18822;SDS011;9540;51.550;7.980;2023-02-15T06:55:49;40.57;;;18.43;;
18822;SDS011;9540;51.550;7.980;2023-02-15T06:58:16;38.23;;;17.30;;
18822;SDS011;9540;51.550;7.980;2023-02-15T07:00:43;40.90;;;19.20;;
18822;SDS011;9540;51.550;7.980;2023-02-15T07:03:12;37.83;;;18.53;;
18822;SDS011;9540;51.550;7.980;2023-02-15T07:05:40;40.27;;;19.10;;
18822;SDS011;9540;51.550;7.980;2023-02-15T07:08:09;38.17;;;19.37;;
18822;SDS011;9540;51.550;7.980;2023-02-15T07:10:36;35.13;;;17.73;;
18822;SDS011;9540;51.550;7.980;2023-02-15T07:13:03;35.50;;;16.10;;
18822;SDS011;9540;51.550;7.980;2023-02-15T07:15:29;36.87;;;17.83;;
18822;SDS011;9540;51.550;7.980;2023-02-15T07:17:56;35.43;;;16.87;;
18822;SDS011;9540;51.550;7.980;2023-02-15T07:20:24;34.97;;;16.00;;
18822;SDS011;9540;51.550;7.980;2023-02-15T07:22:51;31.97;;;16.30;;
18822;SDS011;9540;51.550;7.980;2023-02-15T07:25:19;28.07;;;14.80;;
18822;SDS011;9540;51.550;7.980;2023-02-15T07:27:46;29.80;;;15.03;;
18822;SDS011;9540;51.550;7.980;2023-02-15T07:30:15;29.20;;;14.53;;
18822;SDS011;9540;51.550;7.980;2023-02-15T07:32:43;28.80;;;13.67;;
18822;SDS011;9540;51.550;7.980;2023-02-15T07:35:33;30.03;;;14.70;;
18822;SDS011;9540;51.550;7.980;2023-02-15T07:38:00;28.30;;;13.77;;
18822;SDS011;9540;51.550;7.980;2023-02-15T07:40:29;25.33;;;12.97;;
18822;SDS011;9540;51.550;7.980;2023-02-15T07:42:57;24.33;;;13.07;;
18822;SDS011;9540;51.550;7.980;2023-02-15T07:45:24;24.23;;;12.60;;
18822;SDS011;9540;51.550;7.980;2023-02-15T07:47:51;26.40;;;13.23;;
18822;SDS011;9540;51.550;7.980;2023-02-15T07:50:18;25.73;;;12.27;;
18822;SDS011;9540;51.550;7.980;2023-02-15T07:52:45;25.90;;;12.00;;
18822;SDS011;9540;51.550;7.980;2023-02-15T07:55:13;23.83;;;12.83;;
18822;SDS011;9540;51.550;7.980;2023-02-15T07:57:42;25.03;;;13.23;;
18822;SDS011;9540;51.550;7.980;2023-02-15T08:00:11;24.53;;;12.77;;
18822;SDS011;9540;51.550;7.980;2023-02-15T08:02:39;21.70;;;12.33;;
18822;SDS011;9540;51.550;7.980;2023-02-15T08:05:06;22.75;;;11.65;;
18822;SDS011;9540;51.550;7.980;2023-02-15T08:07:33;21.75;;;11.52;;
18822;SDS011;9540;51.550;7.980;2023-02-15T08:10:00;21.08;;;11.25;;
18822;SDS011;9540;51.550;7.980;2023-02-15T08:12:27;19.75;;;10.23;;
18822;SDS011;9540;51.550;7.980;2023-02-15T08:14:57;20.85;;;10.43;;
18822;SDS011;9540;51.550;7.980;2023-02-15T08:17:25;17.75;;;10.40;;
18822;SDS011;9540;51.550;7.980;2023-02-15T08:19:52;17.45;;;9.52;;
18822;SDS011;9540;51.550;7.980;2023-02-15T08:22:19;15.63;;;9.77;;
18822;SDS011;9540;51.550;7.980;2023-02-15T08:24:46;18.65;;;11.30;;
18822;SDS011;9540;51.550;7.980;2023-02-15T08:27:13;16.42;;;10.38;;
18822;SDS011;9540;51.550;7.980;2023-02-15T08:29:40;16.25;;;9.52;;
18822;SDS011;9540;51.550;7.980;2023-02-15T08:32:09;20.15;;;11.32;;
18822;SDS011;9540;51.550;7.980;2023-02-15T08:34:38;17.83;;;11.75;;
18822;SDS011;9540;51.550;7.980;2023-02-15T08:37:06;18.15;;;11.07;;
18822;SDS011;9540;51.550;7.980;2023-02-15T08:39:34;17.83;;;10.68;;
18822;SDS011;9540;51.550;7.980;2023-02-15T08:42:02;21.80;;;11.75;;
18822;SDS011;9540;51.550;7.980;2023-02-15T08:44:29;18.30;;;10.65;;
18822;SDS011;9540;51.550;7.980;2023-02-15T08:46:56;16.75;;;10.38;;
18822;SDS011;9540;51.550;7.980;2023-02-15T08:49:29;18.48;;;10.73;;
18822;SDS011;9540;51.550;7.980;2023-02-15T08:51:56;19.48;;;11.10;;
18822;SDS011;9540;51.550;7.980;2023-02-15T08:54:23;17.52;;;11.02;;
18822;SDS011;9540;51.550;7.980;2023-02-15T08:56:50;17.10;;;10.48;;
18822;SDS011;9540;51.550;7.980;2023-02-15T08:59:18;20.55;;;10.95;;
18822;SDS011;9540;51.550;7.980;2023-02-15T09:01:45;16.75;;;10.50;;
18822;SDS011;9540;51.550;7.980;2023-02-15T09:04:14;20.25;;;11.55;;
18822;SDS011;9540;51.550;7.980;2023-02-15T09:06:43;18.48;;;10.95;;
18822;SDS011;9540;51.550;7.980;2023-02-15T09:09:11;15.60;;;9.57;;
18822;SDS011;9540;51.550;7.980;2023-02-15T09:11:39;17.35;;;10.20;;
18822;SDS011;9540;51.550;7.980;2023-02-15T09:14:08;20.60;;;11.30;;
18822;SDS011;9540;51.550;7.980;2023-02-15T09:16:39;17.67;;;10.25;;
18822;SDS011;9540;51.550;7.980;2023-02-15T09:19:07;17.20;;;10.00;;
18822;SDS011;9540;51.550;7.980;2023-02-15T09:21:35;17.15;;;10.40;;
18822;SDS011;9540;51.550;7.980;2023-02-15T09:24:06;14.55;;;9.50;;
18822;SDS011;9540;51.550;7.980;2023-02-15T09:26:35;16.27;;;10.15;;
18822;SDS011;9540;51.550;7.980;2023-02-15T09:29:05;14.18;;;9.57;;
18822;SDS011;9540;51.550;7.980;2023-02-15T09:31:33;18.60;;;10.35;;
18822;SDS011;9540;51.550;7.980;2023-02-15T09:34:03;14.38;;;9.18;;
18822;SDS011;9540;51.550;7.980;2023-02-15T09:36:31;17.70;;;10.32;;
18822;SDS011;9540;51.550;7.980;2023-02-15T09:39:00;15.32;;;9.48;;
18822;SDS011;9540;51.550;7.980;2023-02-15T09:41:44;19.08;;;11.15;;
18822;SDS011;9540;51.550;7.980;2023-02-15T09:44:24;15.85;;;10.20;;
18822;SDS011;9540;51.550;7.980;2023-02-15T09:47:02;16.13;;;10.18;;
18822;SDS011;9540;51.550;7.980;2023-02-15T09:49:49;16.20;;;10.45;;
18822;SDS011;9540;51.550;7.980;2023-02-15T09:52:31;22.92;;;10.73;;
18822;SDS011;9540;51.550;7.980;2023-02-15T09:55:11;15.13;;;9.90;;
18822;SDS011;9540;51.550;7.980;2023-02-15T09:57:54;17.15;;;9.65;;
18822;SDS011;9540;51.550;7.980;2023-02-15T10:00:30;18.83;;;10.10;;
18822;SDS011;9540;51.550;7.980;2023-02-15T10:06:03;15.40;;;9.50;;
18822;SDS011;9540;51.550;7.980;2023-02-15T10:09:12;16.50;;;9.77;;
18822;SDS011;9540;51.550;7.980;2023-02-15T10:12:06;16.65;;;9.18;;
18822;SDS011;9540;51.550;7.980;2023-02-15T10:20:49;16.58;;;9.60;;
18822;SDS011;9540;51.550;7.980;2023-02-15T10:23:25;15.55;;;9.63;;
18822;SDS011;9540;51.550;7.980;2023-02-15T10:26:07;15.85;;;8.35;;
18822;SDS011;9540;51.550;7.980;2023-02-15T10:28:43;16.60;;;8.77;;
18822;SDS011;9540;51.550;7.980;2023-02-15T10:31:17;17.23;;;9.23;;
18822;SDS011;9540;51.550;7.980;2023-02-15T10:33:51;14.30;;;8.98;;
18822;SDS011;9540;51.550;7.980;2023-02-15T10:36:37;15.05;;;9.15;;
18822;SDS011;9540;51.550;7.980;2023-02-15T10:39:18;16.10;;;9.70;;
18822;SDS011;9540;51.550;7.980;2023-02-15T10:41:53;16.75;;;8.90;;
18822;SDS011;9540;51.550;7.980;2023-02-15T10:44:30;31.10;;;10.30;;
18822;SDS011;9540;51.550;7.980;2023-02-15T10:50:13;18.10;;;8.70;;
18822;SDS011;9540;51.550;7.980;2023-02-15T10:52:50;14.73;;;9.00;;
18822;SDS011;9540;51.550;7.980;2023-02-15T10:55:40;17.55;;;8.88;;
18822;SDS011;9540;51.550;7.980;2023-02-15T10:58:17;14.75;;;9.02;;
18822;SDS011;9540;51.550;7.980;2023-02-15T11:00:54;15.98;;;8.82;;
18822;SDS011;9540;51.550;7.980;2023-02-15T11:03:36;22.73;;;10.05;;
18822;SDS011;9540;51.550;7.980;2023-02-15T11:06:15;19.60;;;9.65;;
18822;SDS011;9540;51.550;7.980;2023-02-15T11:08:46;18.80;;;9.35;;
18822;SDS011;9540;51.550;7.980;2023-02-15T11:11:19;17.92;;;10.02;;
18822;SDS011;9540;51.550;7.980;2023-02-15T11:13:51;17.20;;;9.93;;
18822;SDS011;9540;51.550;7.980;2023-02-15T11:16:22;20.90;;;11.52;;
18822;SDS011;9540;51.550;7.980;2023-02-15T11:18:55;17.42;;;10.35;;
18822;SDS011;9540;51.550;7.980;2023-02-15T11:21:28;18.25;;;10.02;;
18822;SDS011;9540;51.550;7.980;2023-02-15T11:23:58;18.20;;;10.20;;
18822;SDS011;9540;51.550;7.980;2023-02-15T11:26:28;17.00;;;9.23;;
18822;SDS011;9540;51.550;7.980;2023-02-15T11:29:00;17.83;;;10.00;;
18822;SDS011;9540;51.550;7.980;2023-02-15T11:31:34;14.80;;;9.38;;
18822;SDS011;9540;51.550;7.980;2023-02-15T11:34:11;14.75;;;8.73;;
18822;SDS011;9540;51.550;7.980;2023-02-15T11:36:43;22.60;;;11.63;;
18822;SDS011;9540;51.550;7.980;2023-02-15T11:39:13;19.67;;;11.15;;
18822;SDS011;9540;51.550;7.980;2023-02-15T11:41:44;18.60;;;11.55;;
18822;SDS011;9540;51.550;7.980;2023-02-15T11:44:16;21.15;;;12.25;;
18822;SDS011;9540;51.550;7.980;2023-02-15T11:46:48;17.58;;;10.50;;
18822;SDS011;9540;51.550;7.980;2023-02-15T11:49:20;19.70;;;11.75;;
18822;SDS011;9540;51.550;7.980;2023-02-15T11:51:52;23.65;;;11.23;;
18822;SDS011;9540;51.550;7.980;2023-02-15T11:54:23;19.05;;;11.48;;
18822;SDS011;9540;51.550;7.980;2023-02-15T11:56:54;18.67;;;10.98;;
18822;SDS011;9540;51.550;7.980;2023-02-15T11:59:26;21.63;;;11.35;;
18822;SDS011;9540;51.550;7.980;2023-02-15T12:01:58;18.23;;;10.75;;
18822;SDS011;9540;51.550;7.980;2023-02-15T12:04:25;23.75;;;11.80;;
18822;SDS011;9540;51.550;7.980;2023-02-15T12:06:58;22.30;;;11.75;;
18822;SDS011;9540;51.550;7.980;2023-02-15T12:09:30;18.15;;;10.60;;
18822;SDS011;9540;51.550;7.980;2023-02-15T12:12:20;18.98;;;12.07;;
18822;SDS011;9540;51.550;7.980;2023-02-15T12:14:49;19.38;;;11.82;;
18822;SDS011;9540;51.550;7.980;2023-02-15T12:17:20;18.58;;;10.95;;
18822;SDS011;9540;51.550;7.980;2023-02-15T12:19:49;19.58;;;11.25;;
18822;SDS011;9540;51.550;7.980;2023-02-15T12:22:21;20.08;;;11.00;;
18822;SDS011;9540;51.550;7.980;2023-02-15T12:24:52;15.35;;;11.30;;
18822;SDS011;9540;51.550;7.980;2023-02-15T12:27:22;16.15;;;10.40;;
18822;SDS011;9540;51.550;7.980;2023-02-15T12:29:52;18.60;;;11.50;;
18822;SDS011;9540;51.550;7.980;2023-02-15T12:32:23;16.88;;;11.40;;
18822;SDS011;9540;51.550;7.980;2023-02-15T12:34:52;18.50;;;12.45;;
18822;SDS011;9540;51.550;7.980;2023-02-15T12:37:23;20.63;;;11.80;;
18822;SDS011;9540;51.550;7.980;2023-02-15T12:39:54;17.73;;;11.98;;
18822;SDS011;9540;51.550;7.980;2023-02-15T12:42:22;18.35;;;11.88;;
18822;SDS011;9540;51.550;7.980;2023-02-15T12:44:57;15.98;;;10.93;;
18822;SDS011;9540;51.550;7.980;2023-02-15T12:47:26;19.55;;;11.48;;
18822;SDS011;9540;51.550;7.980;2023-02-15T12:50:05;16.05;;;10.82;;
18822;SDS011;9540;51.550;7.980;2023-02-15T12:52:44;17.50;;;11.45;;
18822;SDS011;9540;51.550;7.980;2023-02-15T12:55:21;17.13;;;11.20;;
18822;SDS011;9540;51.550;7.980;2023-02-15T12:57:49;17.70;;;11.73;;
18822;SDS011;9540;51.550;7.980;2023-02-15T13:00:32;17.02;;;11.95;;
18822;SDS011;9540;51.550;7.980;2023-02-15T13:02:59;17.17;;;11.05;;
18822;SDS011;9540;51.550;7.980;2023-02-15T13:05:29;22.75;;;12.32;;
18822;SDS011;9540;51.550;7.980;2023-02-15T13:08:01;17.95;;;12.35;;
18822;SDS011;9540;51.550;7.980;2023-02-15T13:10:31;18.17;;;12.02;;
18822;SDS011;9540;51.550;7.980;2023-02-15T13:13:02;20.42;;;12.07;;
18822;SDS011;9540;51.550;7.980;2023-02-15T13:15:37;19.52;;;11.85;;
18822;SDS011;9540;51.550;7.980;2023-02-15T13:18:10;22.95;;;12.15;;
18822;SDS011;9540;51.550;7.980;2023-02-15T13:20:40;20.20;;;12.65;;
18822;SDS011;9540;51.550;7.980;2023-02-15T13:23:13;21.83;;;12.68;;
18822;SDS011;9540;51.550;7.980;2023-02-15T13:25:49;21.58;;;13.43;;
18822;SDS011;9540;51.550;7.980;2023-02-15T13:28:17;23.48;;;12.52;;
18822;SDS011;9540;51.550;7.980;2023-02-15T13:30:48;21.67;;;12.07;;
18822;SDS011;9540;51.550;7.980;2023-02-15T13:33:17;21.67;;;12.32;;
18822;SDS011;9540;51.550;7.980;2023-02-15T13:35:54;20.60;;;12.50;;
18822;SDS011;9540;51.550;7.980;2023-02-15T13:41:30;22.63;;;13.05;;
18822;SDS011;9540;51.550;7.980;2023-02-15T13:44:02;24.92;;;12.98;;
18822;SDS011;9540;51.550;7.980;2023-02-15T13:46:52;21.75;;;13.15;;
18822;SDS011;9540;51.550;7.980;2023-02-15T13:49:32;24.60;;;13.63;;
18822;SDS011;9540;51.550;7.980;2023-02-15T13:52:14;23.95;;;13.48;;
18822;SDS011;9540;51.550;7.980;2023-02-15T13:54:51;21.73;;;12.85;;
18822;SDS011;9540;51.550;7.980;2023-02-15T13:57:36;20.90;;;12.65;;
18822;SDS011;9540;51.550;7.980;2023-02-15T14:00:15;24.20;;;14.25;;
18822;SDS011;9540;51.550;7.980;2023-02-15T14:02:52;24.60;;;13.68;;
18822;SDS011;9540;51.550;7.980;2023-02-15T14:05:45;21.00;;;12.68;;
18822;SDS011;9540;51.550;7.980;2023-02-15T14:08:27;27.20;;;12.52;;
18822;SDS011;9540;51.550;7.980;2023-02-15T14:11:06;19.35;;;12.13;;
18822;SDS011;9540;51.550;7.980;2023-02-15T14:13:55;23.50;;;12.57;;
18822;SDS011;9540;51.550;7.980;2023-02-15T14:16:48;39.65;;;14.07;;
18822;SDS011;9540;51.550;7.980;2023-02-15T14:19:22;18.95;;;12.38;;
18822;SDS011;9540;51.550;7.980;2023-02-15T14:21:56;21.33;;;12.43;;
18822;SDS011;9540;51.550;7.980;2023-02-15T14:24:30;20.52;;;11.73;;
18822;SDS011;9540;51.550;7.980;2023-02-15T14:27:05;21.15;;;12.23;;
18822;SDS011;9540;51.550;7.980;2023-02-15T14:29:48;19.10;;;11.88;;
18822;SDS011;9540;51.550;7.980;2023-02-15T14:32:20;19.02;;;11.15;;
18822;SDS011;9540;51.550;7.980;2023-02-15T14:34:53;24.20;;;12.38;;
18822;SDS011;9540;51.550;7.980;2023-02-15T14:37:24;21.92;;;13.13;;
18822;SDS011;9540;51.550;7.980;2023-02-15T14:40:00;23.35;;;12.80;;
18822;SDS011;9540;51.550;7.980;2023-02-15T14:42:53;18.83;;;11.73;;
18822;SDS011;9540;51.550;7.980;2023-02-15T14:45:28;20.20;;;12.48;;
18822;SDS011;9540;51.550;7.980;2023-02-15T14:48:01;21.88;;;13.00;;
18822;SDS011;9540;51.550;7.980;2023-02-15T14:50:42;18.90;;;12.20;;
18822;SDS011;9540;51.550;7.980;2023-02-15T14:56:18;21.52;;;13.30;;
18822;SDS011;9540;51.550;7.980;2023-02-15T14:58:58;24.80;;;13.65;;
18822;SDS011;9540;51.550;7.980;2023-02-15T15:01:50;22.33;;;13.00;;
18822;SDS011;9540;51.550;7.980;2023-02-15T15:04:23;23.15;;;13.73;;
18822;SDS011;9540;51.550;7.980;2023-02-15T15:06:57;23.77;;;13.43;;
18822;SDS011;9540;51.550;7.980;2023-02-15T15:09:31;22.02;;;12.43;;
18822;SDS011;9540;51.550;7.980;2023-02-15T15:15:06;32.90;;;14.18;;
18822;SDS011;9540;51.550;7.980;2023-02-15T15:17:58;25.58;;;13.52;;
18822;SDS011;9540;51.550;7.980;2023-02-15T15:20:45;24.02;;;13.40;;
18822;SDS011;9540;51.550;7.980;2023-02-15T15:26:23;22.65;;;13.13;;
18822;SDS011;9540;51.550;7.980;2023-02-15T15:28:56;18.73;;;12.43;;
18822;SDS011;9540;51.550;7.980;2023-02-15T15:31:25;20.10;;;13.05;;
18822;SDS011;9540;51.550;7.980;2023-02-15T15:43:40;29.33;;;14.60;;